createdAt,value
2019-03-22T00:00:54.762Z,23.37
2019-03-22T00:03:58.253Z,31.60
2019-03-22T00:07:01.717Z,29.33
2019-03-22T00:10:06.406Z,26.97
2019-03-22T00:13:09.897Z,26.67
2019-03-22T00:16:13.366Z,24.27
2019-03-22T00:19:16.845Z,26.10
2019-03-22T00:22:20.284Z,26.80
2019-03-22T00:25:23.746Z,26.90
2019-03-22T00:28:27.186Z,23.53
2019-03-22T00:31:30.662Z,24.00
2019-03-22T00:34:34.102Z,27.83
2019-03-22T00:37:37.577Z,26.07
2019-03-22T00:40:41.018Z,26.27
2019-03-22T00:43:44.482Z,23.57
2019-03-22T00:46:47.954Z,29.03
2019-03-22T00:49:51.395Z,27.10
2019-03-22T00:52:54.852Z,29.27
2019-03-22T00:55:58.293Z,27.10
2019-03-22T00:59:01.777Z,24.73
2019-03-22T01:02:05.217Z,26.17
2019-03-22T01:05:09.337Z,26.23
2019-03-22T01:08:12.769Z,23.30
2019-03-22T01:11:16.237Z,19.70
2019-03-22T01:14:19.676Z,23.37
2019-03-22T01:17:23.150Z,20.30
2019-03-22T01:20:26.599Z,19.33
2019-03-22T01:23:30.082Z,20.77
2019-03-22T01:26:33.517Z,21.47
2019-03-22T01:29:37.002Z,21.20
2019-03-22T01:32:40.437Z,20.50
2019-03-22T01:35:43.906Z,19.00
2019-03-22T01:38:48.726Z,20.23
2019-03-22T01:41:52.201Z,22.37
2019-03-22T01:44:55.654Z,28.60
2019-03-22T01:47:59.126Z,32.50
2019-03-22T01:51:02.598Z,31.73
2019-03-22T01:54:06.035Z,31.80
2019-03-22T01:57:09.514Z,31.07
2019-03-22T02:00:15.574Z,31.30
2019-03-22T02:03:19.040Z,32.87
2019-03-22T02:06:22.477Z,35.20
2019-03-22T02:09:25.949Z,33.87
2019-03-22T02:12:29.427Z,29.97
2019-03-22T02:15:32.882Z,33.93
2019-03-22T02:18:38.025Z,30.80
2019-03-22T02:21:41.567Z,33.60
2019-03-22T02:24:45.034Z,36.23
2019-03-22T02:27:48.510Z,34.33
2019-03-22T02:30:51.960Z,33.87
2019-03-22T02:33:55.786Z,36.00
2019-03-22T02:36:59.261Z,38.83
2019-03-22T02:40:02.998Z,41.27
2019-03-22T02:43:06.528Z,40.33
2019-03-22T02:46:10.063Z,47.33
2019-03-22T02:49:13.504Z,46.20
2019-03-22T02:52:16.970Z,43.60
2019-03-22T02:55:20.414Z,48.10
2019-03-22T02:58:23.901Z,48.47
2019-03-22T03:01:27.464Z,48.00
2019-03-22T03:04:30.982Z,48.87
2019-03-22T03:07:34.458Z,49.60
2019-03-22T03:10:37.923Z,45.10
2019-03-22T03:13:41.382Z,46.07
2019-03-22T03:16:44.854Z,44.50
2019-03-22T03:19:48.399Z,46.43
2019-03-22T03:22:51.935Z,50.97
2019-03-22T03:25:55.393Z,49.33
2019-03-22T03:28:58.865Z,48.00
2019-03-22T03:32:02.354Z,46.07
2019-03-22T03:35:06.800Z,44.80
2019-03-22T03:38:10.259Z,47.90
2019-03-22T03:41:13.703Z,48.07
2019-03-22T03:44:17.180Z,45.67
2019-03-22T03:47:20.650Z,48.37
2019-03-22T03:50:24.102Z,49.13
2019-03-22T03:53:27.575Z,49.83
2019-03-22T03:56:31.041Z,56.67
2019-03-22T03:59:34.511Z,53.57
2019-03-22T04:02:37.994Z,49.23
2019-03-22T04:05:41.481Z,56.63
2019-03-22T04:08:45.038Z,58.53
2019-03-22T04:11:48.503Z,56.77
2019-03-22T04:14:51.950Z,54.20
2019-03-22T04:17:55.406Z,57.53
2019-03-22T04:20:58.894Z,53.60
2019-03-22T04:24:02.339Z,50.23
2019-03-22T04:27:05.809Z,48.17
2019-03-22T04:30:09.281Z,50.77
2019-03-22T04:33:12.811Z,50.00
2019-03-22T04:36:16.291Z,47.17
2019-03-22T04:39:19.737Z,50.43
2019-03-22T04:42:23.198Z,52.37
2019-03-22T04:45:28.816Z,60.47
2019-03-22T04:48:35.162Z,62.00
2019-03-22T04:51:39.166Z,60.73
2019-03-22T04:54:45.022Z,62.07
2019-03-22T04:57:49.534Z,55.93
2019-03-22T05:00:54.815Z,61.83
2019-03-22T05:03:59.192Z,61.80
2019-03-22T05:07:02.894Z,62.77
2019-03-22T05:10:08.949Z,62.10
2019-03-22T05:13:14.553Z,56.80
2019-03-22T05:16:20.143Z,58.87
2019-03-22T05:19:26.686Z,61.17
2019-03-22T05:22:32.067Z,62.80
2019-03-22T05:25:37.281Z,61.33
2019-03-22T05:28:40.734Z,61.87
2019-03-22T05:31:59.205Z,54.50
2019-03-22T05:35:02.718Z,60.47
2019-03-22T05:38:06.236Z,54.60
2019-03-22T05:41:09.778Z,56.43
2019-03-22T05:44:13.213Z,55.17
2019-03-22T05:47:16.679Z,53.87
2019-03-22T05:50:20.146Z,54.33
2019-03-22T05:53:23.605Z,49.57
2019-03-22T05:56:27.133Z,50.43
2019-03-22T05:59:41.563Z,43.77
2019-03-22T06:02:35.869Z,41.87
2019-03-22T06:05:39.345Z,35.63
2019-03-22T06:08:42.837Z,39.33
2019-03-22T06:11:46.413Z,35.83
2019-03-22T06:14:49.969Z,36.43
2019-03-22T06:17:53.457Z,37.40
2019-03-22T06:20:56.928Z,37.13
2019-03-22T06:24:00.399Z,33.97
2019-03-22T06:27:03.910Z,35.00
2019-03-22T06:30:09.238Z,35.97
2019-03-22T06:33:12.803Z,33.03
2019-03-22T06:36:16.297Z,35.33
2019-03-22T06:39:19.744Z,36.67
2019-03-22T06:42:23.209Z,36.73
2019-03-22T06:45:26.678Z,36.07
2019-03-22T06:48:30.142Z,35.77
2019-03-22T06:51:33.612Z,31.17
2019-03-22T06:54:37.074Z,35.70
2019-03-22T06:57:40.533Z,33.97
2019-03-22T07:00:44.069Z,31.60
2019-03-22T07:03:47.535Z,33.97
2019-03-22T07:06:51.058Z,26.97
2019-03-22T07:09:54.541Z,37.40
2019-03-22T07:12:57.974Z,33.43
2019-03-22T07:16:01.464Z,34.27
2019-03-22T07:19:05.001Z,33.53
2019-03-22T07:22:08.476Z,37.53
2019-03-22T07:25:12.007Z,36.70
2019-03-22T07:28:15.454Z,35.77
2019-03-22T07:31:18.941Z,36.97
2019-03-22T07:34:22.387Z,39.83
2019-03-22T07:37:25.856Z,35.67
2019-03-22T07:40:29.337Z,35.80
2019-03-22T07:43:32.799Z,45.03
2019-03-22T07:46:36.333Z,32.50
2019-03-22T07:49:39.772Z,35.13
2019-03-22T07:52:43.242Z,29.87
2019-03-22T07:55:46.681Z,34.80
2019-03-22T07:58:50.154Z,37.23
2019-03-22T08:01:53.614Z,38.23
2019-03-22T08:04:57.081Z,34.87
2019-03-22T08:08:00.537Z,32.80
2019-03-22T08:11:03.991Z,33.37
2019-03-22T08:14:07.538Z,33.90
2019-03-22T08:17:11.077Z,30.63
2019-03-22T08:20:14.542Z,34.93
2019-03-22T08:23:22.933Z,31.80
2019-03-22T08:26:26.066Z,33.57
2019-03-22T08:29:29.539Z,31.60
2019-03-22T08:32:33.078Z,31.20
2019-03-22T08:35:36.604Z,30.47
2019-03-22T08:38:40.156Z,32.00
2019-03-22T08:41:43.605Z,34.10
2019-03-22T08:44:47.077Z,33.57
2019-03-22T08:47:50.553Z,31.67
2019-03-22T08:50:54.057Z,35.00
2019-03-22T08:53:57.523Z,30.23
2019-03-22T08:57:01.050Z,32.07
2019-03-22T09:00:07.629Z,31.53
2019-03-22T09:03:11.090Z,32.03
2019-03-22T09:06:14.630Z,34.40
2019-03-22T09:09:18.150Z,30.77
2019-03-22T09:12:21.626Z,32.40
2019-03-22T09:15:25.103Z,33.13
2019-03-22T09:18:28.633Z,30.13
2019-03-22T09:21:32.147Z,27.47
2019-03-22T09:24:39.440Z,26.50
2019-03-22T09:27:40.769Z,26.27
2019-03-22T09:30:44.277Z,26.73
2019-03-22T09:33:47.873Z,27.40
2019-03-22T09:36:51.346Z,25.80
2019-03-22T09:39:54.794Z,27.50
2019-03-22T09:42:58.299Z,27.17
2019-03-22T09:46:01.925Z,27.03
2019-03-22T09:49:05.466Z,29.57
2019-03-22T09:52:09.017Z,27.57
2019-03-22T09:55:14.252Z,27.13
2019-03-22T09:58:18.214Z,26.50
2019-03-22T10:01:23.861Z,27.43
2019-03-22T10:04:26.909Z,27.03
2019-03-22T10:07:30.377Z,29.03
2019-03-22T10:10:33.878Z,28.30
2019-03-22T10:13:37.387Z,27.07
2019-03-22T10:16:40.883Z,25.03
2019-03-22T10:19:44.388Z,25.10
2019-03-22T10:22:47.965Z,22.40
2019-03-22T10:25:51.563Z,26.90
2019-03-22T10:28:55.031Z,24.73
2019-03-22T10:31:58.502Z,23.77
2019-03-22T10:35:02.029Z,23.70
2019-03-22T10:38:15.350Z,28.03
2019-03-22T10:41:10.690Z,24.03
2019-03-22T10:44:14.230Z,24.67
2019-03-22T10:47:18.401Z,24.87
2019-03-22T10:50:21.964Z,23.00
2019-03-22T10:53:25.426Z,21.23
2019-03-22T10:56:28.923Z,24.07
2019-03-22T10:59:32.382Z,24.27
2019-03-22T11:02:35.857Z,24.30
2019-03-22T11:05:39.314Z,23.93
2019-03-22T11:08:42.797Z,19.67
2019-03-22T11:11:46.274Z,21.33
2019-03-22T11:14:49.826Z,16.57
2019-03-22T11:17:53.297Z,21.33
2019-03-22T11:21:04.859Z,18.30
2019-03-22T11:24:02.066Z,15.33
2019-03-22T11:27:05.514Z,15.83
2019-03-22T11:30:18.090Z,18.83
2019-03-22T11:33:21.561Z,16.87
2019-03-22T11:36:25.070Z,15.33
2019-03-22T11:39:28.516Z,14.47
2019-03-22T11:42:31.982Z,16.40
2019-03-22T11:45:35.493Z,17.77
2019-03-22T11:48:38.932Z,15.27
2019-03-22T11:51:42.475Z,17.60
2019-03-22T11:54:45.954Z,13.60
2019-03-22T11:57:49.412Z,16.17
2019-03-22T12:00:52.900Z,15.63
2019-03-22T12:03:56.416Z,13.03
2019-03-22T12:06:59.871Z,16.73
2019-03-22T12:10:05.245Z,17.40
2019-03-22T12:13:08.697Z,15.87
2019-03-22T12:16:12.253Z,14.07
2019-03-22T12:19:15.773Z,15.50
2019-03-22T12:22:19.246Z,15.80
2019-03-22T12:25:24.337Z,15.70
2019-03-22T12:28:27.801Z,16.53
2019-03-22T12:31:31.254Z,15.73
2019-03-22T12:34:34.797Z,14.70
2019-03-22T12:37:38.305Z,13.17
2019-03-22T12:40:41.778Z,13.63
2019-03-22T12:43:46.130Z,12.73
2019-03-22T12:46:49.630Z,12.50
2019-03-22T12:49:53.065Z,15.10
2019-03-22T12:52:56.537Z,15.10
2019-03-22T12:55:59.981Z,15.93
2019-03-22T12:59:03.489Z,13.47
2019-03-22T13:02:07.012Z,13.83
2019-03-22T13:05:11.016Z,12.67
2019-03-22T13:08:14.453Z,12.37
2019-03-22T13:11:17.917Z,12.03
2019-03-22T13:14:21.362Z,11.27
2019-03-22T13:17:24.911Z,10.60
2019-03-22T13:20:28.342Z,11.03
2019-03-22T13:23:31.810Z,13.43
2019-03-22T13:26:35.296Z,9.40
2019-03-22T13:29:38.734Z,8.97
2019-03-22T13:32:51.846Z,9.97
2019-03-22T13:35:47.393Z,11.20
2019-03-22T13:38:50.842Z,9.90
2019-03-22T13:41:54.319Z,11.87
2019-03-22T13:44:57.850Z,10.67
2019-03-22T13:48:01.337Z,8.00
2019-03-22T13:51:04.846Z,9.27
2019-03-22T13:54:08.329Z,7.30
2019-03-22T13:57:12.686Z,6.53
2019-03-22T14:00:20.090Z,7.27
2019-03-22T14:03:23.584Z,5.83
2019-03-22T14:06:27.114Z,6.70
2019-03-22T14:09:30.650Z,5.27
2019-03-22T14:12:37.218Z,5.73
2019-03-22T14:15:39.358Z,4.70
2019-03-22T14:18:42.818Z,5.80
2019-03-22T14:21:46.256Z,5.20
2019-03-22T14:24:49.726Z,5.83
2019-03-22T14:27:53.511Z,4.47
2019-03-22T14:30:56.969Z,3.70
2019-03-22T14:34:00.421Z,5.93
2019-03-22T14:37:03.960Z,4.27
2019-03-22T14:40:07.772Z,4.87
2019-03-22T14:43:11.223Z,6.20
2019-03-22T14:46:14.712Z,4.77
2019-03-22T14:49:18.199Z,5.07
2019-03-22T14:52:21.667Z,5.07
2019-03-22T14:55:25.135Z,4.63
2019-03-22T14:58:28.590Z,4.37
2019-03-22T15:01:32.053Z,4.97
2019-03-22T15:04:35.581Z,5.50
2019-03-22T15:07:39.045Z,7.17
2019-03-22T15:10:42.525Z,6.10
2019-03-22T15:13:47.621Z,7.13
2019-03-22T15:17:09.189Z,6.13
2019-03-22T15:20:23.655Z,7.10
2019-03-22T15:23:28.749Z,7.43
2019-03-22T15:26:39.909Z,8.30
2019-03-22T15:29:54.373Z,8.27
2019-03-22T15:33:02.282Z,9.23
2019-03-22T15:39:31.592Z,11.47
2019-03-22T15:42:35.192Z,9.37
2019-03-22T15:45:38.653Z,11.63
2019-03-22T15:48:42.109Z,12.13
2019-03-22T15:51:45.597Z,9.83
2019-03-22T15:54:49.092Z,9.07
2019-03-22T15:57:52.569Z,10.27
2019-03-22T16:00:56.041Z,11.40
2019-03-22T16:03:59.585Z,12.80
2019-03-22T16:07:03.127Z,11.00
2019-03-22T16:10:08.809Z,13.17
2019-03-22T16:13:12.274Z,10.70
2019-03-22T16:16:15.717Z,14.13
2019-03-22T16:19:19.179Z,13.03
2019-03-22T16:22:22.669Z,15.00
2019-03-22T16:25:26.125Z,12.87
2019-03-22T16:28:29.582Z,13.57
2019-03-22T16:31:33.062Z,11.97
2019-03-22T16:34:36.528Z,12.80
2019-03-22T16:37:39.985Z,12.33
2019-03-22T16:40:43.434Z,12.40
2019-03-22T16:43:46.934Z,15.50
2019-03-22T16:46:50.381Z,15.30
2019-03-22T16:49:53.846Z,14.80
2019-03-22T16:52:57.331Z,14.57
2019-03-22T16:56:00.806Z,15.63
2019-03-22T16:59:04.327Z,15.47
2019-03-22T17:02:07.793Z,17.50
2019-03-22T17:05:11.308Z,14.60
2019-03-22T17:08:24.737Z,15.30
2019-03-22T17:11:28.174Z,14.77
2019-03-22T17:14:31.641Z,17.10
2019-03-22T17:17:35.933Z,15.23
2019-03-22T17:20:39.409Z,15.33
2019-03-22T17:23:42.861Z,15.87
2019-03-22T17:26:46.335Z,13.73
2019-03-22T17:29:49.798Z,17.00
2019-03-22T17:32:53.269Z,16.00
2019-03-22T17:35:56.742Z,16.93
2019-03-22T17:39:00.225Z,14.97
2019-03-22T17:42:03.699Z,17.87
2019-03-22T17:45:09.454Z,16.47
2019-03-22T17:48:12.953Z,14.53
2019-03-22T17:51:16.418Z,15.87
2019-03-22T17:54:19.902Z,16.43
2019-03-22T17:57:23.438Z,15.07
2019-03-22T18:00:27.970Z,16.30
2019-03-22T18:03:31.418Z,15.90
2019-03-22T18:06:34.911Z,18.13
2019-03-22T18:09:38.394Z,18.13
2019-03-22T18:12:41.879Z,19.33
2019-03-22T18:15:45.326Z,19.17
2019-03-22T18:18:48.905Z,21.53
2019-03-22T18:21:54.518Z,20.63
2019-03-22T18:24:57.541Z,20.33
2019-03-22T18:28:01.007Z,22.30
2019-03-22T18:31:04.511Z,27.53
2019-03-22T18:34:07.973Z,23.43
2019-03-22T18:37:11.453Z,25.97
2019-03-22T18:40:15.497Z,27.80
2019-03-22T18:43:18.998Z,27.13
2019-03-22T18:46:22.498Z,26.33
2019-03-22T18:49:25.988Z,30.63
2019-03-22T18:52:29.537Z,29.63
2019-03-22T18:55:33.009Z,29.07
2019-03-22T18:58:36.479Z,30.73
2019-03-22T19:01:39.926Z,29.60
2019-03-22T19:04:44.350Z,27.80
2019-03-22T19:07:48.164Z,31.77
2019-03-22T19:10:51.614Z,30.57
2019-03-22T19:13:55.074Z,31.40
2019-03-22T19:16:58.526Z,33.23
2019-03-22T19:20:01.989Z,33.27
2019-03-22T19:23:05.458Z,30.10
2019-03-22T19:26:08.917Z,29.70
2019-03-22T19:29:12.386Z,31.97
2019-03-22T19:32:15.826Z,27.43
2019-03-22T19:35:19.298Z,28.60
2019-03-22T19:38:22.742Z,25.83
2019-03-22T19:41:26.277Z,26.07
2019-03-22T19:44:29.726Z,27.47
2019-03-22T19:47:33.251Z,24.47
2019-03-22T19:50:36.747Z,24.17
2019-03-22T19:53:40.198Z,26.53
2019-03-22T19:56:43.697Z,26.50
2019-03-22T19:59:47.129Z,26.00
2019-03-22T20:02:50.602Z,24.83
2019-03-22T20:05:54.089Z,25.13
2019-03-22T20:08:57.629Z,26.90
2019-03-22T20:12:01.089Z,24.80
2019-03-22T20:15:06.498Z,29.73
2019-03-22T20:18:10.356Z,24.30
2019-03-22T20:21:13.825Z,23.03
2019-03-22T20:24:17.285Z,26.40
2019-03-22T20:27:20.742Z,24.47
2019-03-22T20:30:24.210Z,25.50
2019-03-22T20:33:27.662Z,24.53
2019-03-22T20:36:31.127Z,22.27
2019-03-22T20:39:34.609Z,22.37
2019-03-22T20:42:38.045Z,25.27
2019-03-22T20:45:41.522Z,27.27
2019-03-22T20:48:44.986Z,22.90
2019-03-22T20:51:48.456Z,24.87
2019-03-22T20:54:51.942Z,21.93
2019-03-22T20:57:55.407Z,24.57
2019-03-22T21:00:58.873Z,24.83
2019-03-22T21:04:02.351Z,22.20
2019-03-22T21:07:05.991Z,23.30
2019-03-22T21:10:10.029Z,24.27
2019-03-22T21:13:13.490Z,23.73
2019-03-22T21:16:16.988Z,23.67
2019-03-22T21:19:20.493Z,22.50
2019-03-22T21:22:23.970Z,25.03
2019-03-22T21:25:27.461Z,23.13
2019-03-22T21:28:30.934Z,24.87
2019-03-22T21:31:34.399Z,21.73
2019-03-22T21:34:37.933Z,25.03
2019-03-22T21:37:41.414Z,23.60
2019-03-22T21:40:44.893Z,23.30
2019-03-22T21:43:48.365Z,25.53
2019-03-22T21:46:51.892Z,24.17
2019-03-22T21:49:55.340Z,22.73
2019-03-22T21:52:58.818Z,25.33
2019-03-22T21:56:02.295Z,25.10
2019-03-22T21:59:05.766Z,26.23
2019-03-22T22:02:09.214Z,23.70
2019-03-22T22:05:12.685Z,24.00
2019-03-22T22:08:16.153Z,24.83
2019-03-22T22:11:19.664Z,24.80
2019-03-22T22:14:23.193Z,25.33
2019-03-22T22:17:26.674Z,24.23
2019-03-22T22:20:30.205Z,26.00
2019-03-22T22:23:33.671Z,26.83
2019-03-22T22:26:37.115Z,29.27
2019-03-22T22:29:40.606Z,27.40
2019-03-22T22:32:44.045Z,26.73
2019-03-22T22:35:57.945Z,27.90
2019-03-22T22:38:52.702Z,27.70
2019-03-22T22:41:56.157Z,27.30
2019-03-22T22:44:59.629Z,25.60
2019-03-22T22:48:03.074Z,28.37
2019-03-22T22:51:06.542Z,26.10
2019-03-22T22:54:10.025Z,26.73
2019-03-22T22:57:13.461Z,23.90
2019-03-22T23:00:17.986Z,26.90
2019-03-22T23:03:21.459Z,25.53
2019-03-22T23:06:24.933Z,30.33
2019-03-22T23:09:28.465Z,28.20
2019-03-22T23:12:31.926Z,37.70
2019-03-22T23:15:35.393Z,29.33
2019-03-22T23:18:38.919Z,26.87
2019-03-22T23:21:42.382Z,27.57
2019-03-22T23:24:45.825Z,26.97
2019-03-22T23:27:49.334Z,27.70
2019-03-22T23:30:52.793Z,29.23
2019-03-22T23:33:56.334Z,27.13
2019-03-22T23:36:59.784Z,29.00
2019-03-22T23:40:03.913Z,25.83
2019-03-22T23:43:07.378Z,30.27
2019-03-22T23:46:10.854Z,27.40
2019-03-22T23:49:14.295Z,27.40
2019-03-22T23:52:17.785Z,29.70
2019-03-22T23:55:21.254Z,29.43
2019-03-22T23:58:24.718Z,28.40
